sensor_id;sensor_type;location;lat;lon;timestamp;P1;durP1;ratioP1;P2;durP2;ratioP2
11490;SDS011;5802;52.832;4.758;2023-02-28T00:00:07;1.20;;;0.68;;
11490;SDS011;5802;52.832;4.758;2023-02-28T00:02:35;0.98;;;0.70;;
11490;SDS011;5802;52.832;4.758;2023-02-28T00:05:02;2.53;;;0.70;;
11490;SDS011;5802;52.832;4.758;2023-02-28T00:07:29;1.30;;;0.68;;
11490;SDS011;5802;52.832;4.758;2023-02-28T00:10:02;3.15;;;0.95;;
11490;SDS011;5802;52.832;4.758;2023-02-28T00:12:30;1.00;;;0.60;;
11490;SDS011;5802;52.832;4.758;2023-02-28T00:14:57;2.75;;;0.80;;
11490;SDS011;5802;52.832;4.758;2023-02-28T00:17:24;0.90;;;0.75;;
11490;SDS011;5802;52.832;4.758;2023-02-28T00:19:51;0.95;;;0.70;;
11490;SDS011;5802;52.832;4.758;2023-02-28T00:22:18;3.28;;;0.98;;
11490;SDS011;5802;52.832;4.758;2023-02-28T00:24:46;2.05;;;0.80;;
11490;SDS011;5802;52.832;4.758;2023-02-28T00:27:13;0.90;;;0.40;;
11490;SDS011;5802;52.832;4.758;2023-02-28T00:29:41;1.02;;;0.55;;
11490;SDS011;5802;52.832;4.758;2023-02-28T00:32:08;3.55;;;0.80;;
11490;SDS011;5802;52.832;4.758;2023-02-28T00:34:35;0.60;;;0.57;;
11490;SDS011;5802;52.832;4.758;2023-02-28T00:37:03;1.15;;;0.70;;
11490;SDS011;5802;52.832;4.758;2023-02-28T00:39:30;1.20;;;0.70;;
11490;SDS011;5802;52.832;4.758;2023-02-28T00:41:59;1.33;;;0.55;;
11490;SDS011;5802;52.832;4.758;2023-02-28T00:44:25;2.17;;;0.75;;
11490;SDS011;5802;52.832;4.758;2023-02-28T00:46:53;1.38;;;0.50;;
11490;SDS011;5802;52.832;4.758;2023-02-28T00:49:21;1.50;;;0.90;;
11490;SDS011;5802;52.832;4.758;2023-02-28T00:51:48;6.70;;;0.93;;
11490;SDS011;5802;52.832;4.758;2023-02-28T00:54:15;1.65;;;0.70;;
11490;SDS011;5802;52.832;4.758;2023-02-28T00:56:42;2.78;;;0.82;;
11490;SDS011;5802;52.832;4.758;2023-02-28T00:59:10;4.10;;;1.20;;
11490;SDS011;5802;52.832;4.758;2023-02-28T01:01:37;2.45;;;0.90;;
11490;SDS011;5802;52.832;4.758;2023-02-28T01:04:05;2.60;;;0.50;;
11490;SDS011;5802;52.832;4.758;2023-02-28T01:06:32;0.63;;;0.50;;
11490;SDS011;5802;52.832;4.758;2023-02-28T01:08:59;1.33;;;0.45;;
11490;SDS011;5802;52.832;4.758;2023-02-28T01:11:26;1.08;;;0.55;;
11490;SDS011;5802;52.832;4.758;2023-02-28T01:13:53;1.98;;;0.90;;
11490;SDS011;5802;52.832;4.758;2023-02-28T01:16:19;3.17;;;0.50;;
11490;SDS011;5802;52.832;4.758;2023-02-28T01:18:46;1.08;;;0.73;;
11490;SDS011;5802;52.832;4.758;2023-02-28T01:21:15;0.98;;;0.63;;
11490;SDS011;5802;52.832;4.758;2023-02-28T01:23:43;0.95;;;0.43;;
11490;SDS011;5802;52.832;4.758;2023-02-28T01:26:11;0.85;;;0.65;;
11490;SDS011;5802;52.832;4.758;2023-02-28T01:28:39;0.80;;;0.50;;
11490;SDS011;5802;52.832;4.758;2023-02-28T01:31:06;2.40;;;0.63;;
11490;SDS011;5802;52.832;4.758;2023-02-28T01:33:33;2.08;;;0.60;;
11490;SDS011;5802;52.832;4.758;2023-02-28T01:36:00;1.42;;;0.73;;
11490;SDS011;5802;52.832;4.758;2023-02-28T01:38:30;1.13;;;0.50;;
11490;SDS011;5802;52.832;4.758;2023-02-28T01:40:57;1.70;;;0.65;;
11490;SDS011;5802;52.832;4.758;2023-02-28T01:43:24;1.95;;;0.60;;
11490;SDS011;5802;52.832;4.758;2023-02-28T01:45:53;1.40;;;0.63;;
11490;SDS011;5802;52.832;4.758;2023-02-28T01:48:22;1.10;;;0.60;;
11490;SDS011;5802;52.832;4.758;2023-02-28T01:50:52;3.53;;;0.70;;
11490;SDS011;5802;52.832;4.758;2023-02-28T01:53:23;0.70;;;0.40;;
11490;SDS011;5802;52.832;4.758;2023-02-28T01:56:02;2.35;;;0.75;;
11490;SDS011;5802;52.832;4.758;2023-02-28T01:58:31;0.63;;;0.45;;
11490;SDS011;5802;52.832;4.758;2023-02-28T02:00:58;0.95;;;0.50;;
11490;SDS011;5802;52.832;4.758;2023-02-28T02:03:27;0.90;;;0.55;;
11490;SDS011;5802;52.832;4.758;2023-02-28T02:05:56;1.33;;;0.70;;
11490;SDS011;5802;52.832;4.758;2023-02-28T02:08:23;1.00;;;0.60;;
11490;SDS011;5802;52.832;4.758;2023-02-28T02:10:54;1.30;;;0.50;;
11490;SDS011;5802;52.832;4.758;2023-02-28T02:13:40;1.00;;;0.50;;
11490;SDS011;5802;52.832;4.758;2023-02-28T02:16:34;1.23;;;0.38;;
11490;SDS011;5802;52.832;4.758;2023-02-28T02:19:11;1.30;;;0.65;;
11490;SDS011;5802;52.832;4.758;2023-02-28T02:21:53;3.05;;;0.75;;
11490;SDS011;5802;52.832;4.758;2023-02-28T02:24:46;1.58;;;0.75;;
11490;SDS011;5802;52.832;4.758;2023-02-28T02:30:39;2.45;;;0.80;;
11490;SDS011;5802;52.832;4.758;2023-02-28T02:33:26;1.40;;;0.70;;
11490;SDS011;5802;52.832;4.758;2023-02-28T02:36:07;1.88;;;0.60;;
11490;SDS011;5802;52.832;4.758;2023-02-28T02:38:44;0.60;;;0.60;;
11490;SDS011;5802;52.832;4.758;2023-02-28T02:41:16;0.73;;;0.40;;
11490;SDS011;5802;52.832;4.758;2023-02-28T02:43:49;1.38;;;0.30;;
11490;SDS011;5802;52.832;4.758;2023-02-28T02:46:19;1.02;;;0.45;;
11490;SDS011;5802;52.832;4.758;2023-02-28T02:48:49;1.63;;;0.60;;
11490;SDS011;5802;52.832;4.758;2023-02-28T02:51:22;0.93;;;0.47;;
11490;SDS011;5802;52.832;4.758;2023-02-28T02:53:50;2.33;;;0.60;;
11490;SDS011;5802;52.832;4.758;2023-02-28T02:56:22;0.77;;;0.43;;
11490;SDS011;5802;52.832;4.758;2023-02-28T02:58:55;1.38;;;0.70;;
11490;SDS011;5802;52.832;4.758;2023-02-28T03:01:28;1.52;;;0.73;;
11490;SDS011;5802;52.832;4.758;2023-02-28T03:03:58;1.42;;;0.30;;
11490;SDS011;5802;52.832;4.758;2023-02-28T03:06:28;2.15;;;0.60;;
11490;SDS011;5802;52.832;4.758;2023-02-28T03:08:55;3.05;;;0.70;;
11490;SDS011;5802;52.832;4.758;2023-02-28T03:11:22;1.85;;;0.77;;
11490;SDS011;5802;52.832;4.758;2023-02-28T03:13:52;0.50;;;0.40;;
11490;SDS011;5802;52.832;4.758;2023-02-28T03:16:31;0.98;;;0.50;;
11490;SDS011;5802;52.832;4.758;2023-02-28T03:19:03;2.30;;;0.68;;
11490;SDS011;5802;52.832;4.758;2023-02-28T03:21:57;0.43;;;0.30;;
11490;SDS011;5802;52.832;4.758;2023-02-28T03:24:43;0.88;;;0.47;;
11490;SDS011;5802;52.832;4.758;2023-02-28T03:27:17;1.75;;;0.60;;
11490;SDS011;5802;52.832;4.758;2023-02-28T03:29:50;1.77;;;0.40;;
11490;SDS011;5802;52.832;4.758;2023-02-28T03:32:21;1.88;;;0.50;;
11490;SDS011;5802;52.832;4.758;2023-02-28T03:34:54;1.02;;;0.52;;
11490;SDS011;5802;52.832;4.758;2023-02-28T03:37:26;1.30;;;0.60;;
11490;SDS011;5802;52.832;4.758;2023-02-28T03:39:57;0.90;;;0.60;;
11490;SDS011;5802;52.832;4.758;2023-02-28T03:42:27;1.48;;;0.43;;
11490;SDS011;5802;52.832;4.758;2023-02-28T03:44:57;0.68;;;0.43;;
11490;SDS011;5802;52.832;4.758;2023-02-28T03:47:27;0.75;;;0.30;;
11490;SDS011;5802;52.832;4.758;2023-02-28T03:50:01;1.30;;;0.60;;
11490;SDS011;5802;52.832;4.758;2023-02-28T03:52:35;0.65;;;0.57;;
11490;SDS011;5802;52.832;4.758;2023-02-28T03:55:05;1.77;;;0.70;;
11490;SDS011;5802;52.832;4.758;2023-02-28T03:57:37;1.23;;;0.60;;
11490;SDS011;5802;52.832;4.758;2023-02-28T04:00:10;0.43;;;0.38;;
11490;SDS011;5802;52.832;4.758;2023-02-28T04:02:40;0.93;;;0.40;;
11490;SDS011;5802;52.832;4.758;2023-02-28T04:05:07;1.27;;;0.52;;
11490;SDS011;5802;52.832;4.758;2023-02-28T04:07:36;0.80;;;0.60;;
11490;SDS011;5802;52.832;4.758;2023-02-28T04:10:03;0.43;;;0.22;;
11490;SDS011;5802;52.832;4.758;2023-02-28T04:12:31;1.05;;;0.52;;
11490;SDS011;5802;52.832;4.758;2023-02-28T04:14:57;2.25;;;0.70;;
11490;SDS011;5802;52.832;4.758;2023-02-28T04:17:24;0.93;;;0.40;;
11490;SDS011;5802;52.832;4.758;2023-02-28T04:19:51;1.30;;;0.52;;
11490;SDS011;5802;52.832;4.758;2023-02-28T04:22:19;0.77;;;0.40;;
11490;SDS011;5802;52.832;4.758;2023-02-28T04:24:47;1.27;;;0.50;;
11490;SDS011;5802;52.832;4.758;2023-02-28T04:27:13;0.88;;;0.50;;
11490;SDS011;5802;52.832;4.758;2023-02-28T04:29:40;1.13;;;0.50;;
11490;SDS011;5802;52.832;4.758;2023-02-28T04:32:09;0.80;;;0.55;;
11490;SDS011;5802;52.832;4.758;2023-02-28T04:34:36;1.17;;;0.40;;
11490;SDS011;5802;52.832;4.758;2023-02-28T04:37:03;0.80;;;0.47;;
11490;SDS011;5802;52.832;4.758;2023-02-28T04:39:34;1.13;;;0.43;;
11490;SDS011;5802;52.832;4.758;2023-02-28T04:42:03;1.08;;;0.70;;
11490;SDS011;5802;52.832;4.758;2023-02-28T04:44:29;1.42;;;0.50;;
11490;SDS011;5802;52.832;4.758;2023-02-28T04:46:56;0.40;;;0.35;;
11490;SDS011;5802;52.832;4.758;2023-02-28T04:49:23;0.82;;;0.50;;
11490;SDS011;5802;52.832;4.758;2023-02-28T04:51:49;1.20;;;0.65;;
11490;SDS011;5802;52.832;4.758;2023-02-28T04:54:17;1.40;;;0.40;;
11490;SDS011;5802;52.832;4.758;2023-02-28T04:56:44;1.13;;;0.40;;
11490;SDS011;5802;52.832;4.758;2023-02-28T04:59:12;1.58;;;0.60;;
11490;SDS011;5802;52.832;4.758;2023-02-28T05:01:39;0.98;;;0.50;;
11490;SDS011;5802;52.832;4.758;2023-02-28T05:04:06;1.73;;;0.47;;
11490;SDS011;5802;52.832;4.758;2023-02-28T05:06:33;0.45;;;0.30;;
11490;SDS011;5802;52.832;4.758;2023-02-28T05:08:59;1.98;;;0.65;;
11490;SDS011;5802;52.832;4.758;2023-02-28T05:11:27;1.95;;;0.40;;
11490;SDS011;5802;52.832;4.758;2023-02-28T05:13:59;0.90;;;0.40;;
11490;SDS011;5802;52.832;4.758;2023-02-28T05:16:27;0.77;;;0.47;;
11490;SDS011;5802;52.832;4.758;2023-02-28T05:18:54;1.48;;;0.60;;
11490;SDS011;5802;52.832;4.758;2023-02-28T05:21:23;0.63;;;0.50;;
11490;SDS011;5802;52.832;4.758;2023-02-28T05:23:51;2.28;;;0.50;;
11490;SDS011;5802;52.832;4.758;2023-02-28T05:26:18;1.92;;;0.47;;
11490;SDS011;5802;52.832;4.758;2023-02-28T05:28:45;0.98;;;0.40;;
11490;SDS011;5802;52.832;4.758;2023-02-28T05:31:12;1.48;;;0.60;;
11490;SDS011;5802;52.832;4.758;2023-02-28T05:33:40;3.00;;;0.50;;
11490;SDS011;5802;52.832;4.758;2023-02-28T05:36:07;0.60;;;0.30;;
11490;SDS011;5802;52.832;4.758;2023-02-28T05:38:34;3.00;;;0.50;;
11490;SDS011;5802;52.832;4.758;2023-02-28T05:41:04;1.25;;;0.55;;
11490;SDS011;5802;52.832;4.758;2023-02-28T05:43:31;1.38;;;0.40;;
11490;SDS011;5802;52.832;4.758;2023-02-28T05:45:58;0.85;;;0.40;;
11490;SDS011;5802;52.832;4.758;2023-02-28T05:48:25;0.65;;;0.40;;
11490;SDS011;5802;52.832;4.758;2023-02-28T05:50:53;0.50;;;0.40;;
11490;SDS011;5802;52.832;4.758;2023-02-28T05:53:20;0.30;;;0.30;;
11490;SDS011;5802;52.832;4.758;2023-02-28T05:55:47;0.95;;;0.50;;
11490;SDS011;5802;52.832;4.758;2023-02-28T05:58:13;0.57;;;0.50;;
11490;SDS011;5802;52.832;4.758;2023-02-28T06:00:40;0.40;;;0.40;;
11490;SDS011;5802;52.832;4.758;2023-02-28T06:03:07;0.60;;;0.40;;
11490;SDS011;5802;52.832;4.758;2023-02-28T06:05:33;0.40;;;0.30;;
11490;SDS011;5802;52.832;4.758;2023-02-28T06:08:01;1.77;;;0.60;;
11490;SDS011;5802;52.832;4.758;2023-02-28T06:10:28;0.95;;;0.40;;
11490;SDS011;5802;52.832;4.758;2023-02-28T06:12:55;0.40;;;0.40;;
11490;SDS011;5802;52.832;4.758;2023-02-28T06:15:25;0.20;;;0.20;;
11490;SDS011;5802;52.832;4.758;2023-02-28T06:17:52;3.55;;;0.60;;
11490;SDS011;5802;52.832;4.758;2023-02-28T06:20:18;0.38;;;0.30;;
11490;SDS011;5802;52.832;4.758;2023-02-28T06:22:45;0.38;;;0.30;;
11490;SDS011;5802;52.832;4.758;2023-02-28T06:25:13;0.77;;;0.30;;
11490;SDS011;5802;52.832;4.758;2023-02-28T06:27:40;0.52;;;0.50;;
11490;SDS011;5802;52.832;4.758;2023-02-28T06:30:07;0.52;;;0.40;;
11490;SDS011;5802;52.832;4.758;2023-02-28T06:32:35;1.90;;;0.50;;
11490;SDS011;5802;52.832;4.758;2023-02-28T06:35:02;0.82;;;0.50;;
11490;SDS011;5802;52.832;4.758;2023-02-28T06:37:30;0.28;;;0.20;;
11490;SDS011;5802;52.832;4.758;2023-02-28T06:39:56;1.35;;;0.47;;
11490;SDS011;5802;52.832;4.758;2023-02-28T06:42:24;0.75;;;0.40;;
11490;SDS011;5802;52.832;4.758;2023-02-28T06:44:53;0.55;;;0.30;;
11490;SDS011;5802;52.832;4.758;2023-02-28T06:47:20;0.43;;;0.30;;
11490;SDS011;5802;52.832;4.758;2023-02-28T06:49:47;0.50;;;0.30;;
11490;SDS011;5802;52.832;4.758;2023-02-28T06:52:15;1.17;;;0.47;;
11490;SDS011;5802;52.832;4.758;2023-02-28T06:54:42;0.82;;;0.50;;
11490;SDS011;5802;52.832;4.758;2023-02-28T06:57:08;0.63;;;0.32;;
11490;SDS011;5802;52.832;4.758;2023-02-28T06:59:36;0.75;;;0.40;;
11490;SDS011;5802;52.832;4.758;2023-02-28T07:02:03;1.17;;;0.47;;
11490;SDS011;5802;52.832;4.758;2023-02-28T07:04:31;0.75;;;0.40;;
11490;SDS011;5802;52.832;4.758;2023-02-28T07:06:58;0.95;;;0.30;;
11490;SDS011;5802;52.832;4.758;2023-02-28T07:09:24;1.08;;;0.40;;
11490;SDS011;5802;52.832;4.758;2023-02-28T07:11:54;0.28;;;0.25;;
11490;SDS011;5802;52.832;4.758;2023-02-28T07:14:21;0.80;;;0.40;;
11490;SDS011;5802;52.832;4.758;2023-02-28T07:16:49;0.93;;;0.43;;
11490;SDS011;5802;52.832;4.758;2023-02-28T07:19:16;0.95;;;0.30;;
11490;SDS011;5802;52.832;4.758;2023-02-28T07:21:43;3.58;;;0.65;;
11490;SDS011;5802;52.832;4.758;2023-02-28T07:24:10;1.10;;;0.30;;
11490;SDS011;5802;52.832;4.758;2023-02-28T07:26:36;0.45;;;0.25;;
11490;SDS011;5802;52.832;4.758;2023-02-28T07:29:03;0.50;;;0.40;;
11490;SDS011;5802;52.832;4.758;2023-02-28T07:31:30;0.95;;;0.30;;
11490;SDS011;5802;52.832;4.758;2023-02-28T07:33:58;0.60;;;0.50;;
11490;SDS011;5802;52.832;4.758;2023-02-28T07:36:25;0.85;;;0.30;;
11490;SDS011;5802;52.832;4.758;2023-02-28T07:38:52;1.75;;;0.38;;
11490;SDS011;5802;52.832;4.758;2023-02-28T07:41:19;1.00;;;0.32;;
11490;SDS011;5802;52.832;4.758;2023-02-28T07:43:48;2.40;;;0.55;;
11490;SDS011;5802;52.832;4.758;2023-02-28T07:46:15;2.78;;;0.43;;
11490;SDS011;5802;52.832;4.758;2023-02-28T07:48:43;1.15;;;0.60;;
11490;SDS011;5802;52.832;4.758;2023-02-28T07:51:11;0.90;;;0.30;;
11490;SDS011;5802;52.832;4.758;2023-02-28T07:53:38;0.55;;;0.32;;
11490;SDS011;5802;52.832;4.758;2023-02-28T07:56:05;0.80;;;0.43;;
11490;SDS011;5802;52.832;4.758;2023-02-28T07:58:33;1.27;;;0.60;;
11490;SDS011;5802;52.832;4.758;2023-02-28T08:01:04;1.92;;;0.50;;
11490;SDS011;5802;52.832;4.758;2023-02-28T08:03:32;1.67;;;0.50;;
11490;SDS011;5802;52.832;4.758;2023-02-28T08:05:59;0.98;;;0.40;;
11490;SDS011;5802;52.832;4.758;2023-02-28T08:08:28;0.68;;;0.30;;
11490;SDS011;5802;52.832;4.758;2023-02-28T08:10:58;0.75;;;0.40;;
11490;SDS011;5802;52.832;4.758;2023-02-28T08:13:25;0.85;;;0.50;;
11490;SDS011;5802;52.832;4.758;2023-02-28T08:15:53;4.38;;;0.70;;
11490;SDS011;5802;52.832;4.758;2023-02-28T08:18:20;0.50;;;0.40;;
11490;SDS011;5802;52.832;4.758;2023-02-28T08:20:47;1.42;;;0.85;;
11490;SDS011;5802;52.832;4.758;2023-02-28T08:23:14;1.10;;;0.50;;
11490;SDS011;5802;52.832;4.758;2023-02-28T08:25:42;1.30;;;0.40;;
11490;SDS011;5802;52.832;4.758;2023-02-28T08:28:09;1.60;;;0.50;;
11490;SDS011;5802;52.832;4.758;2023-02-28T08:30:35;1.05;;;0.50;;
11490;SDS011;5802;52.832;4.758;2023-02-28T08:33:02;1.90;;;0.50;;
11490;SDS011;5802;52.832;4.758;2023-02-28T08:35:29;4.25;;;0.80;;
11490;SDS011;5802;52.832;4.758;2023-02-28T08:37:56;0.85;;;0.60;;
11490;SDS011;5802;52.832;4.758;2023-02-28T08:40:23;0.77;;;0.52;;
11490;SDS011;5802;52.832;4.758;2023-02-28T08:42:51;4.32;;;0.73;;
11490;SDS011;5802;52.832;4.758;2023-02-28T08:45:17;1.75;;;0.60;;
11490;SDS011;5802;52.832;4.758;2023-02-28T08:47:44;1.13;;;0.57;;
11490;SDS011;5802;52.832;4.758;2023-02-28T08:50:11;2.65;;;0.60;;
11490;SDS011;5802;52.832;4.758;2023-02-28T08:52:41;1.00;;;0.60;;
11490;SDS011;5802;52.832;4.758;2023-02-28T08:55:08;1.15;;;0.50;;
11490;SDS011;5802;52.832;4.758;2023-02-28T08:57:35;1.80;;;0.70;;
11490;SDS011;5802;52.832;4.758;2023-02-28T09:00:04;1.20;;;0.70;;
11490;SDS011;5802;52.832;4.758;2023-02-28T09:02:33;2.10;;;0.50;;
11490;SDS011;5802;52.832;4.758;2023-02-28T09:04:59;0.70;;;0.40;;
11490;SDS011;5802;52.832;4.758;2023-02-28T09:07:26;1.02;;;0.50;;
11490;SDS011;5802;52.832;4.758;2023-02-28T09:09:53;1.40;;;0.60;;
11490;SDS011;5802;52.832;4.758;2023-02-28T09:12:19;0.50;;;0.32;;
11490;SDS011;5802;52.832;4.758;2023-02-28T09:14:46;2.15;;;0.55;;
11490;SDS011;5802;52.832;4.758;2023-02-28T09:17:14;0.80;;;0.40;;
11490;SDS011;5802;52.832;4.758;2023-02-28T09:19:41;0.70;;;0.40;;
11490;SDS011;5802;52.832;4.758;2023-02-28T09:22:08;0.47;;;0.40;;
11490;SDS011;5802;52.832;4.758;2023-02-28T09:24:35;1.15;;;0.57;;
11490;SDS011;5802;52.832;4.758;2023-02-28T09:27:02;0.40;;;0.30;;
11490;SDS011;5802;52.832;4.758;2023-02-28T09:29:29;0.82;;;0.50;;
11490;SDS011;5802;52.832;4.758;2023-02-28T09:31:56;1.23;;;0.77;;
11490;SDS011;5802;52.832;4.758;2023-02-28T09:34:25;0.90;;;0.40;;
11490;SDS011;5802;52.832;4.758;2023-02-28T09:36:51;0.47;;;0.43;;
11490;SDS011;5802;52.832;4.758;2023-02-28T09:39:20;0.90;;;0.50;;
11490;SDS011;5802;52.832;4.758;2023-02-28T09:41:47;1.98;;;0.65;;
11490;SDS011;5802;52.832;4.758;2023-02-28T09:44:18;1.15;;;0.50;;
11490;SDS011;5802;52.832;4.758;2023-02-28T09:46:51;1.13;;;0.50;;
11490;SDS011;5802;52.832;4.758;2023-02-28T09:49:27;0.65;;;0.40;;
11490;SDS011;5802;52.832;4.758;2023-02-28T09:51:59;1.05;;;0.35;;
11490;SDS011;5802;52.832;4.758;2023-02-28T09:54:29;4.38;;;0.63;;
11490;SDS011;5802;52.832;4.758;2023-02-28T09:56:58;0.50;;;0.40;;
11490;SDS011;5802;52.832;4.758;2023-02-28T09:59:33;1.23;;;0.65;;
11490;SDS011;5802;52.832;4.758;2023-02-28T10:02:11;1.25;;;0.60;;
11490;SDS011;5802;52.832;4.758;2023-02-28T10:04:49;0.50;;;0.38;;
11490;SDS011;5802;52.832;4.758;2023-02-28T10:07:22;3.85;;;0.98;;
11490;SDS011;5802;52.832;4.758;2023-02-28T10:10:03;0.93;;;0.43;;
11490;SDS011;5802;52.832;4.758;2023-02-28T10:12:34;1.13;;;0.43;;
11490;SDS011;5802;52.832;4.758;2023-02-28T10:15:07;0.90;;;0.25;;
11490;SDS011;5802;52.832;4.758;2023-02-28T10:17:41;3.15;;;0.60;;
11490;SDS011;5802;52.832;4.758;2023-02-28T10:20:13;0.38;;;0.38;;
11490;SDS011;5802;52.832;4.758;2023-02-28T10:22:49;0.50;;;0.50;;
11490;SDS011;5802;52.832;4.758;2023-02-28T10:25:20;1.02;;;0.50;;
11490;SDS011;5802;52.832;4.758;2023-02-28T10:27:49;0.85;;;0.43;;
11490;SDS011;5802;52.832;4.758;2023-02-28T10:30:19;0.88;;;0.70;;
11490;SDS011;5802;52.832;4.758;2023-02-28T10:32:48;2.20;;;0.80;;
11490;SDS011;5802;52.832;4.758;2023-02-28T10:35:20;1.10;;;0.70;;
11490;SDS011;5802;52.832;4.758;2023-02-28T10:37:49;0.95;;;0.60;;
11490;SDS011;5802;52.832;4.758;2023-02-28T10:40:27;1.30;;;0.80;;
11490;SDS011;5802;52.832;4.758;2023-02-28T10:42:57;1.25;;;0.77;;
11490;SDS011;5802;52.832;4.758;2023-02-28T10:45:26;0.93;;;0.60;;
11490;SDS011;5802;52.832;4.758;2023-02-28T10:47:55;3.08;;;0.80;;
11490;SDS011;5802;52.832;4.758;2023-02-28T10:50:29;3.35;;;0.60;;
11490;SDS011;5802;52.832;4.758;2023-02-28T10:55:57;2.97;;;0.50;;
11490;SDS011;5802;52.832;4.758;2023-02-28T10:58:27;2.17;;;0.60;;
11490;SDS011;5802;52.832;4.758;2023-02-28T11:00:55;1.02;;;0.80;;
11490;SDS011;5802;52.832;4.758;2023-02-28T11:03:29;5.38;;;1.20;;
11490;SDS011;5802;52.832;4.758;2023-02-28T11:06:03;7.15;;;1.50;;
11490;SDS011;5802;52.832;4.758;2023-02-28T11:08:32;6.60;;;1.60;;
11490;SDS011;5802;52.832;4.758;2023-02-28T11:11:01;5.88;;;2.25;;
11490;SDS011;5802;52.832;4.758;2023-02-28T11:13:32;10.43;;;2.33;;
11490;SDS011;5802;52.832;4.758;2023-02-28T11:16:03;7.60;;;2.30;;
11490;SDS011;5802;52.832;4.758;2023-02-28T11:18:33;7.70;;;2.40;;
11490;SDS011;5802;52.832;4.758;2023-02-28T11:21:06;6.72;;;2.10;;
11490;SDS011;5802;52.832;4.758;2023-02-28T11:23:35;9.20;;;2.00;;
11490;SDS011;5802;52.832;4.758;2023-02-28T11:26:06;4.85;;;1.60;;
11490;SDS011;5802;52.832;4.758;2023-02-28T11:28:36;3.25;;;1.50;;
11490;SDS011;5802;52.832;4.758;2023-02-28T11:31:06;7.60;;;1.95;;
11490;SDS011;5802;52.832;4.758;2023-02-28T11:33:44;4.90;;;1.80;;
11490;SDS011;5802;52.832;4.758;2023-02-28T11:36:17;6.32;;;1.83;;
11490;SDS011;5802;52.832;4.758;2023-02-28T11:38:46;6.40;;;1.65;;
11490;SDS011;5802;52.832;4.758;2023-02-28T11:41:25;4.95;;;1.75;;
11490;SDS011;5802;52.832;4.758;2023-02-28T11:46:49;5.90;;;1.83;;
11490;SDS011;5802;52.832;4.758;2023-02-28T11:49:28;5.82;;;1.75;;
11490;SDS011;5802;52.832;4.758;2023-02-28T11:52:03;5.10;;;1.60;;
11490;SDS011;5802;52.832;4.758;2023-02-28T11:57:32;4.88;;;1.45;;
11490;SDS011;5802;52.832;4.758;2023-02-28T12:00:07;7.50;;;1.70;;
11490;SDS011;5802;52.832;4.758;2023-02-28T12:02:50;6.30;;;1.60;;
11490;SDS011;5802;52.832;4.758;2023-02-28T12:05:29;4.78;;;1.23;;
11490;SDS011;5802;52.832;4.758;2023-02-28T12:08:06;6.38;;;1.70;;
11490;SDS011;5802;52.832;4.758;2023-02-28T12:10:44;6.47;;;1.63;;
11490;SDS011;5802;52.832;4.758;2023-02-28T12:13:21;4.35;;;1.50;;
11490;SDS011;5802;52.832;4.758;2023-02-28T12:15:59;3.47;;;1.35;;
11490;SDS011;5802;52.832;4.758;2023-02-28T12:18:52;3.58;;;1.40;;
11490;SDS011;5802;52.832;4.758;2023-02-28T12:21:26;3.90;;;1.33;;
11490;SDS011;5802;52.832;4.758;2023-02-28T12:24:08;4.00;;;1.38;;
11490;SDS011;5802;52.832;4.758;2023-02-28T12:26:55;2.10;;;0.95;;
11490;SDS011;5802;52.832;4.758;2023-02-28T12:29:27;3.47;;;1.15;;
11490;SDS011;5802;52.832;4.758;2023-02-28T12:31:58;1.92;;;1.10;;
11490;SDS011;5802;52.832;4.758;2023-02-28T12:34:36;5.10;;;1.30;;
11490;SDS011;5802;52.832;4.758;2023-02-28T12:37:05;3.60;;;1.02;;
11490;SDS011;5802;52.832;4.758;2023-02-28T12:39:37;5.00;;;1.13;;
11490;SDS011;5802;52.832;4.758;2023-02-28T12:42:10;2.40;;;1.02;;
11490;SDS011;5802;52.832;4.758;2023-02-28T12:44:40;3.17;;;1.13;;
11490;SDS011;5802;52.832;4.758;2023-02-28T12:47:13;4.35;;;1.10;;
11490;SDS011;5802;52.832;4.758;2023-02-28T12:49:42;2.47;;;1.10;;
11490;SDS011;5802;52.832;4.758;2023-02-28T12:52:14;4.22;;;1.15;;
11490;SDS011;5802;52.832;4.758;2023-02-28T12:54:48;1.50;;;1.05;;
11490;SDS011;5802;52.832;4.758;2023-02-28T12:57:22;3.40;;;1.10;;
11490;SDS011;5802;52.832;4.758;2023-02-28T12:59:55;2.70;;;1.27;;
11490;SDS011;5802;52.832;4.758;2023-02-28T13:02:32;3.10;;;1.02;;
11490;SDS011;5802;52.832;4.758;2023-02-28T13:05:22;2.15;;;1.10;;
11490;SDS011;5802;52.832;4.758;2023-02-28T13:10:51;3.35;;;1.20;;
11490;SDS011;5802;52.832;4.758;2023-02-28T13:13:20;4.25;;;1.08;;
11490;SDS011;5802;52.832;4.758;2023-02-28T13:15:59;3.55;;;1.00;;
11490;SDS011;5802;52.832;4.758;2023-02-28T13:18:29;2.30;;;1.15;;
11490;SDS011;5802;52.832;4.758;2023-02-28T13:20:58;2.90;;;1.17;;
11490;SDS011;5802;52.832;4.758;2023-02-28T13:23:37;2.78;;;0.88;;
11490;SDS011;5802;52.832;4.758;2023-02-28T13:26:08;2.13;;;0.85;;
11490;SDS011;5802;52.832;4.758;2023-02-28T13:28:57;4.63;;;1.15;;
11490;SDS011;5802;52.832;4.758;2023-02-28T13:31:25;4.50;;;1.00;;
11490;SDS011;5802;52.832;4.758;2023-02-28T13:34:04;2.67;;;1.08;;
11490;SDS011;5802;52.832;4.758;2023-02-28T13:36:38;2.33;;;1.10;;
11490;SDS011;5802;52.832;4.758;2023-02-28T13:39:15;3.10;;;1.15;;
11490;SDS011;5802;52.832;4.758;2023-02-28T13:42:23;2.45;;;0.90;;
11490;SDS011;5802;52.832;4.758;2023-02-28T13:47:51;5.47;;;1.13;;
11490;SDS011;5802;52.832;4.758;2023-02-28T13:50:21;2.50;;;0.60;;
11490;SDS011;5802;52.832;4.758;2023-02-28T13:52:56;7.05;;;1.05;;
11490;SDS011;5802;52.832;4.758;2023-02-28T13:55:44;4.32;;;0.90;;
11490;SDS011;5802;52.832;4.758;2023-02-28T13:58:28;2.22;;;1.02;;
11490;SDS011;5802;52.832;4.758;2023-02-28T14:01:23;7.05;;;1.20;;
11490;SDS011;5802;52.832;4.758;2023-02-28T14:04:13;1.80;;;0.77;;
11490;SDS011;5802;52.832;4.758;2023-02-28T14:06:53;3.30;;;1.00;;
11490;SDS011;5802;52.832;4.758;2023-02-28T14:09:23;2.22;;;0.85;;
11490;SDS011;5802;52.832;4.758;2023-02-28T14:11:53;6.15;;;0.90;;
11490;SDS011;5802;52.832;4.758;2023-02-28T14:17:22;2.13;;;0.80;;
11490;SDS011;5802;52.832;4.758;2023-02-28T14:19:51;4.68;;;0.75;;
11490;SDS011;5802;52.832;4.758;2023-02-28T14:22:22;4.93;;;1.30;;
11490;SDS011;5802;52.832;4.758;2023-02-28T14:25:11;2.17;;;0.70;;
11490;SDS011;5802;52.832;4.758;2023-02-28T14:27:49;2.67;;;0.77;;
11490;SDS011;5802;52.832;4.758;2023-02-28T14:33:22;3.55;;;0.95;;
11490;SDS011;5802;52.832;4.758;2023-02-28T14:36:10;4.97;;;1.13;;
11490;SDS011;5802;52.832;4.758;2023-02-28T14:38:43;1.33;;;0.60;;
11490;SDS011;5802;52.832;4.758;2023-02-28T14:41:18;1.95;;;0.70;;
11490;SDS011;5802;52.832;4.758;2023-02-28T14:43:49;1.10;;;0.60;;
11490;SDS011;5802;52.832;4.758;2023-02-28T14:46:22;6.30;;;0.90;;
11490;SDS011;5802;52.832;4.758;2023-02-28T14:48:52;2.55;;;0.73;;
11490;SDS011;5802;52.832;4.758;2023-02-28T14:51:20;7.50;;;0.93;;
11490;SDS011;5802;52.832;4.758;2023-02-28T14:53:49;1.92;;;0.82;;
11490;SDS011;5802;52.832;4.758;2023-02-28T14:56:23;1.05;;;0.60;;
11490;SDS011;5802;52.832;4.758;2023-02-28T14:58:52;3.97;;;0.70;;
11490;SDS011;5802;52.832;4.758;2023-02-28T15:01:21;3.20;;;0.68;;
11490;SDS011;5802;52.832;4.758;2023-02-28T15:03:57;1.20;;;0.70;;
11490;SDS011;5802;52.832;4.758;2023-02-28T15:06:26;1.95;;;0.70;;
11490;SDS011;5802;52.832;4.758;2023-02-28T15:09:14;1.35;;;0.50;;
11490;SDS011;5802;52.832;4.758;2023-02-28T15:11:44;2.58;;;0.82;;
11490;SDS011;5802;52.832;4.758;2023-02-28T15:14:19;3.05;;;0.50;;
11490;SDS011;5802;52.832;4.758;2023-02-28T15:16:50;0.95;;;0.60;;
11490;SDS011;5802;52.832;4.758;2023-02-28T15:19:22;5.00;;;0.85;;
11490;SDS011;5802;52.832;4.758;2023-02-28T15:21:51;2.60;;;0.70;;
11490;SDS011;5802;52.832;4.758;2023-02-28T15:24:23;1.35;;;0.60;;
11490;SDS011;5802;52.832;4.758;2023-02-28T15:26:58;1.42;;;0.75;;
11490;SDS011;5802;52.832;4.758;2023-02-28T15:29:30;5.25;;;0.80;;
11490;SDS011;5802;52.832;4.758;2023-02-28T15:32:05;1.02;;;0.60;;
11490;SDS011;5802;52.832;4.758;2023-02-28T15:34:34;2.05;;;0.60;;
11490;SDS011;5802;52.832;4.758;2023-02-28T15:37:06;1.83;;;0.80;;
11490;SDS011;5802;52.832;4.758;2023-02-28T15:39:51;2.80;;;0.70;;
11490;SDS011;5802;52.832;4.758;2023-02-28T15:42:19;1.38;;;0.70;;
11490;SDS011;5802;52.832;4.758;2023-02-28T15:44:47;0.75;;;0.35;;